• Join FlightAware (Why Join?)
  • Login
  • US Flag 
10:21PM EDT


 

Airport Tracker/Info


-or-


 

Live Flight TrackerFlight Track Log ✈ UAL274 ✈ 07-May-2013 ✈ KLAX - MMMX / MEX

Flight Track Log - Related Links

Times and Time Zones

All times are in EDT time to prevent confusion due to time zone crossing. See the UAL274 flight status page for this flight to view local times or setup timezone preferences in your user account.

Time Position Orientation Groundspeed Altitude Reporting Facility
EDT Latitude Longitude Course Direction KTS MPH feet Rate Location/Type
09:01PM 33.9167 -118.4833 90° East 211 243 2,600  Level Southern California TRACON
09:02PM 33.7389 -118.5861 134° Southeast  Level FlightAware Approximate
09:02PM 33.8667 -118.5333 220° Southwest 265 305 4,900  Level Southern California TRACON
09:03PM 33.6504 -118.4617 126° Southeast  Level FlightAware Approximate
09:03PM 33.7833 -118.5500 189° South 284 327 7,800  Level Southern California TRACON
09:04PM 33.5625 -118.3377 112° Southeast  Level FlightAware Approximate
09:04PM 33.7069 -118.5339 170° South 294 338 9,000  Level Los Angeles Center
09:05PM 33.5081 -118.1911 112° Southeast  Level FlightAware Approximate
09:05PM 33.6600 -118.4464 123° Southeast 316 364 10,600  Level Los Angeles Center
09:06PM 33.5000 -118.0293 90° East  Level FlightAware Approximate
09:06PM 33.5950 -118.3292 124° Southeast 356 410 13,500  Level Los Angeles Center
09:07PM 33.5333 -118.2311 127° Southeast 374 430 15,200 1,740 Climbing Los Angeles Center
09:08PM 33.4592 -118.1336 132° Southeast 395 455 17,100 1,800 Climbing Los Angeles Center
09:09PM 33.3811 -118.0325 133° Southeast 409 471 18,900 1,680 Climbing Los Angeles Center
09:10PM 33.3003 -117.9281 133° Southeast 423 487 20,600 1,560 Climbing Los Angeles Center
09:11PM 33.2169 -117.8206 133° Southeast 437 503 22,200 1,440 Climbing Los Angeles Center
09:12PM 33.1142 -117.6869 133° Southeast 453 521 23,600 1,260 Climbing Los Angeles Center
09:13PM 33.0250 -117.5714 133° Southeast 468 539 24,800 1,200 Climbing Los Angeles Center
09:14PM 32.9336 -117.4544 133° Southeast 479 551 26,100 1,080 Climbing Los Angeles Center
09:15PM 32.8403 -117.3339 133° Southeast 491 565 27,100 1,020 Climbing Los Angeles Center
09:16PM 32.7328 -117.1989 133° Southeast 501 577 28,300 1,020 Climbing Los Angeles Center
09:17PM 32.6367 -117.0753 133° Southeast 509 586 29,300 900 Climbing Los Angeles Center
09:18PM 32.5414 -116.9497 132° Southeast 514 592 30,200 840 Climbing Los Angeles Center
09:20PM 32.4576 -116.7985 121° Southeast  Level FlightAware Approximate
09:27PM 31.9414 -115.8686 123° Southeast  Level FlightAware Approximate
09:28PM 31.8670 -115.7366 124° Southeast  Level FlightAware Approximate
09:29PM 31.7925 -115.6049 124° Southeast  Level FlightAware Approximate
09:30PM 31.7178 -115.4734 124° Southeast  Level FlightAware Approximate
09:31PM 31.6431 -115.3421 124° Southeast  Level FlightAware Approximate
09:32PM 31.5688 -115.2105 123° Southeast  Level FlightAware Approximate
09:33PM 31.4953 -115.0784 123° Southeast  Level FlightAware Approximate
09:34PM 31.4217 -114.9465 123° Southeast  Level FlightAware Approximate
09:35PM 31.3480 -114.8149 123° Southeast  Level FlightAware Approximate
09:36PM 31.2741 -114.6834 123° Southeast  Level FlightAware Approximate
09:37PM 31.2001 -114.5521 123° Southeast  Level FlightAware Approximate
09:38PM 31.1259 -114.4211 123° Southeast  Level FlightAware Approximate
09:39PM 31.0497 -114.2919 129° Southeast  Level FlightAware Approximate
09:40PM 30.9657 -114.1694 129° Southeast  Level FlightAware Approximate
09:41PM 30.8816 -114.0472 129° Southeast  Level FlightAware Approximate
09:42PM 30.7973 -113.9251 129° Southeast  Level FlightAware Approximate
09:43PM 30.7130 -113.8033 129° Southeast  Level FlightAware Approximate
09:44PM 30.6285 -113.6817 129° Southeast  Level FlightAware Approximate
09:45PM 30.5439 -113.5603 129° Southeast  Level FlightAware Approximate
09:46PM 30.4592 -113.4391 129° Southeast  Level FlightAware Approximate
09:47PM 30.3744 -113.3181 129° Southeast  Level FlightAware Approximate
09:48PM 30.2901 -113.1968 129° Southeast  Level FlightAware Approximate
09:49PM 30.2059 -113.0755 129° Southeast  Level FlightAware Approximate
09:50PM 30.1215 -112.9545 129° Southeast  Level FlightAware Approximate
09:51PM 30.0371 -112.8336 129° Southeast  Level FlightAware Approximate
09:52PM 29.9525 -112.7129 129° Southeast  Level FlightAware Approximate
09:53PM 29.8678 -112.5924 129° Southeast  Level FlightAware Approximate
09:54PM 29.7831 -112.4721 129° Southeast  Level FlightAware Approximate
09:55PM 29.6982 -112.3521 129° Southeast  Level FlightAware Approximate
09:56PM 29.6132 -112.2322 129° Southeast  Level FlightAware Approximate
09:57PM 29.5281 -112.1125 129° Southeast  Level FlightAware Approximate
09:58PM 29.4429 -111.9931 129° Southeast  Level FlightAware Approximate
09:59PM 29.3575 -111.8738 129° Southeast  Level FlightAware Approximate
10:00PM 29.2721 -111.7548 129° Southeast  Level FlightAware Approximate
10:01PM 29.1866 -111.6359 129° Southeast  Level FlightAware Approximate
10:02PM 29.1009 -111.5173 130° Southeast  Level FlightAware Approximate
10:03PM 29.0152 -111.3988 130° Southeast  Level FlightAware Approximate
10:04PM 28.9293 -111.2805 130° Southeast  Level FlightAware Approximate
10:05PM 28.8434 -111.1624 130° Southeast  Level FlightAware Approximate
10:06PM 28.7574 -111.0446 130° Southeast  Level FlightAware Approximate
10:07PM 28.6712 -110.9269 130° Southeast  Level FlightAware Approximate
10:08PM 28.5849 -110.8094 130° Southeast  Level FlightAware Approximate
10:09PM 28.4986 -110.6921 130° Southeast  Level FlightAware Approximate
10:10PM 28.4121 -110.5750 130° Southeast  Level FlightAware Approximate
10:11PM 28.3256 -110.4581 130° Southeast  Level FlightAware Approximate
10:12PM 28.2389 -110.3413 130° Southeast  Level FlightAware Approximate
10:13PM 28.1522 -110.2248 130° Southeast  Level FlightAware Approximate
10:14PM 28.0653 -110.1085 130° Southeast  Level FlightAware Approximate
10:15PM 27.9784 -109.9923 130° Southeast  Level FlightAware Approximate
10:16PM 27.8913 -109.8763 130° Southeast  Level FlightAware Approximate
10:17PM 27.8042 -109.7606 130° Southeast  Level FlightAware Approximate
10:18PM 27.7171 -109.6447 130° Southeast  Level FlightAware Approximate
10:19PM 27.6310 -109.5282 130° Southeast  Level FlightAware Approximate
10:20PM 27.5447 -109.4118 130° Southeast  Level FlightAware Approximate
10:21PM 27.4584 -109.2957 130° Southeast  Level FlightAware Approximate
10:22PM 27.3719 -109.1797 130° Southeast  Level FlightAware Approximate
10:23PM 27.2854 -109.0639 130° Southeast  Level FlightAware Approximate
10:24PM 27.1967 -108.9502 132° Southeast  Level FlightAware Approximate
10:25PM 27.1066 -108.8381 132° Southeast  Level FlightAware Approximate
10:26PM 27.0163 -108.7262 132° Southeast  Level FlightAware Approximate
10:27PM 26.9261 -108.6144 132° Southeast  Level FlightAware Approximate
10:28PM 26.8357 -108.5029 132° Southeast  Level FlightAware Approximate
10:29PM 26.7506 -108.3862 129° Southeast  Level FlightAware Approximate
10:30PM 26.6648 -108.2703 130° Southeast  Level FlightAware Approximate
10:31PM 26.5777 -108.1558 130° Southeast  Level FlightAware Approximate
10:32PM 26.4905 -108.0415 130° Southeast  Level FlightAware Approximate
10:33PM 26.4027 -107.9278 131° Southeast  Level FlightAware Approximate
10:34PM 26.3138 -107.8152 131° Southeast  Level FlightAware Approximate
10:35PM 26.2248 -107.7028 131° Southeast  Level FlightAware Approximate
10:36PM 26.1358 -107.5905 131° Southeast  Level FlightAware Approximate
10:37PM 26.0466 -107.4785 132° Southeast  Level FlightAware Approximate
10:38PM 25.9574 -107.3666 132° Southeast  Level FlightAware Approximate
10:39PM 25.8681 -107.2548 132° Southeast  Level FlightAware Approximate
10:40PM 25.7787 -107.1433 132° Southeast  Level FlightAware Approximate
10:41PM 25.6893 -107.0319 132° Southeast  Level FlightAware Approximate
10:42PM 25.5997 -106.9207 132° Southeast  Level FlightAware Approximate
10:43PM 25.5100 -106.8096 132° Southeast  Level FlightAware Approximate
10:44PM 25.4203 -106.6987 132° Southeast  Level FlightAware Approximate
10:45PM 25.3305 -106.5880 132° Southeast  Level FlightAware Approximate
10:46PM 25.2406 -106.4774 132° Southeast  Level FlightAware Approximate
10:47PM 25.1506 -106.3670 132° Southeast  Level FlightAware Approximate
10:48PM 25.0606 -106.2568 132° Southeast  Level FlightAware Approximate
10:49PM 24.9704 -106.1467 132° Southeast  Level FlightAware Approximate
10:50PM 24.8802 -106.0368 132° Southeast  Level FlightAware Approximate
10:51PM 24.7899 -105.9271 132° Southeast  Level FlightAware Approximate
10:52PM 24.6995 -105.8175 132° Southeast  Level FlightAware Approximate
10:53PM 24.6091 -105.7081 132° Southeast  Level FlightAware Approximate
10:54PM 24.5185 -105.5988 132° Southeast  Level FlightAware Approximate
10:55PM 24.4279 -105.4896 132° Southeast  Level FlightAware Approximate
10:56PM 24.3372 -105.3807 132° Southeast  Level FlightAware Approximate
10:57PM 24.2465 -105.2718 132° Southeast  Level FlightAware Approximate
10:58PM 24.1557 -105.1631 132° Southeast  Level FlightAware Approximate
10:59PM 24.0648 -105.0546 133° Southeast  Level FlightAware Approximate
11:00PM 23.9738 -104.9463 133° Southeast  Level FlightAware Approximate
11:01PM 23.8827 -104.8380 133° Southeast  Level FlightAware Approximate
11:02PM 23.7916 -104.7300 133° Southeast  Level FlightAware Approximate
11:03PM 23.7004 -104.6221 133° Southeast  Level FlightAware Approximate
11:04PM 23.6091 -104.5143 133° Southeast  Level FlightAware Approximate
11:05PM 23.5178 -104.4067 133° Southeast  Level FlightAware Approximate
11:06PM 23.4263 -104.2992 133° Southeast  Level FlightAware Approximate
11:07PM 23.3349 -104.1919 133° Southeast  Level FlightAware Approximate
11:08PM 23.2433 -104.0847 133° Southeast  Level FlightAware Approximate
11:09PM 23.1516 -103.9777 133° Southeast  Level FlightAware Approximate
11:10PM 23.0599 -103.8709 133° Southeast  Level FlightAware Approximate
11:11PM 22.9681 -103.7641 133° Southeast  Level FlightAware Approximate
11:12PM 22.8763 -103.6575 133° Southeast  Level FlightAware Approximate
11:13PM 22.7843 -103.5511 133° Southeast  Level FlightAware Approximate
11:14PM 22.6923 -103.4448 133° Southeast  Level FlightAware Approximate
11:15PM 22.6003 -103.3387 133° Southeast  Level FlightAware Approximate
11:16PM 22.5080 -103.2328 133° Southeast  Level FlightAware Approximate
11:17PM 22.4155 -103.1272 133° Southeast  Level FlightAware Approximate
11:18PM 22.3230 -103.0217 133° Southeast  Level FlightAware Approximate
11:19PM 22.2305 -102.9163 133° Southeast  Level FlightAware Approximate
11:20PM 22.1378 -102.8111 134° Southeast  Level FlightAware Approximate
11:21PM 22.0451 -102.7060 134° Southeast  Level FlightAware Approximate
11:22PM 21.9523 -102.6010 134° Southeast  Level FlightAware Approximate
11:23PM 21.8595 -102.4962 134° Southeast  Level FlightAware Approximate
11:24PM 21.7666 -102.3916 134° Southeast  Level FlightAware Approximate
11:25PM 21.6850 -102.2789 113° Southeast  Level FlightAware Approximate
11:26PM 21.6320 -102.1460 113° Southeast  Level FlightAware Approximate
11:27PM 21.5788 -102.0132 113° Southeast  Level FlightAware Approximate
11:28PM 21.5256 -101.8804 113° Southeast  Level FlightAware Approximate
11:29PM 21.4670 -101.7506 118° Southeast  Level FlightAware Approximate
11:30PM 21.4119 -101.6189 113° Southeast  Level FlightAware Approximate
11:31PM 21.3598 -101.4858 113° Southeast  Level FlightAware Approximate
11:32PM 21.3076 -101.3528 113° Southeast  Level FlightAware Approximate
11:33PM 21.2367 -101.2306 123° Southeast  Level FlightAware Approximate
11:34PM 21.1625 -101.1103 123° Southeast  Level FlightAware Approximate
11:35PM 21.0883 -100.9902 124° Southeast  Level FlightAware Approximate
11:36PM 21.0139 -100.8702 124° Southeast  Level FlightAware Approximate
11:37PM 20.9394 -100.7503 124° Southeast  Level FlightAware Approximate
11:38PM 20.8617 -100.6247 121° Southeast  Level FlightAware Approximate
11:39PM 20.7883 -100.4961 121° Southeast  Level FlightAware Approximate
11:40PM 20.7142 -100.3682 123° Southeast  Level FlightAware Approximate
11:41PM 20.6440 -100.2379 118° Southeast  Level FlightAware Approximate
11:42PM 20.5629 -100.1160 130° Southeast  Level FlightAware Approximate
11:43PM 20.4719 -100.0014 129° Southeast  Level FlightAware Approximate
11:44PM 20.3839 -99.8840 129° Southeast  Level FlightAware Approximate
11:45PM 20.2951 -99.7676 130° Southeast  Level FlightAware Approximate
11:46PM 20.2050 -99.6523 130° Southeast  Level FlightAware Approximate
11:47PM 20.1148 -99.5372 130° Southeast  Level FlightAware Approximate
11:48PM 20.0254 -99.4214 125° Southeast  Level FlightAware Approximate
11:49PM 19.9440 -99.2993 125° Southeast  Level FlightAware Approximate
11:50PM 19.8575 -99.1823 133° Southeast  Level FlightAware Approximate
11:51PM 19.7674 -99.0677 125° Southeast  Level FlightAware Approximate
11:52PM 19.6539 -99.0333 180° South  Level FlightAware Approximate
11:53PM 19.5143 -99.0471 191° South  Level FlightAware Approximate
11:54PM 19.4363 -99.0721 191° South  Level Estimated